createdAt,value
2018-04-20T00:01:57.358Z,22.80
2018-04-20T00:04:24.806Z,22.80
2018-04-20T00:06:52.248Z,22.70
2018-04-20T00:09:19.681Z,22.80
2018-04-20T00:11:47.821Z,22.70
2018-04-20T00:14:15.301Z,22.70
2018-04-20T00:16:42.723Z,22.50
2018-04-20T00:19:10.184Z,22.50
2018-04-20T00:21:37.597Z,22.50
2018-04-20T00:24:05.032Z,22.50
2018-04-20T00:26:33.235Z,22.20
2018-04-20T00:29:00.658Z,22.20
2018-04-20T00:31:28.089Z,22.10
2018-04-20T00:33:55.537Z,21.90
2018-04-20T00:36:22.975Z,21.80
2018-04-20T00:38:50.411Z,21.70
2018-04-20T00:41:17.842Z,21.50
2018-04-20T00:43:46.080Z,21.30
2018-04-20T00:46:13.516Z,21.30
2018-04-20T00:48:40.956Z,21.20
2018-04-20T00:51:09.182Z,21.00
2018-04-20T00:53:48.602Z,21.00
2018-04-20T00:56:16.040Z,21.00
2018-04-20T00:58:43.478Z,20.80
2018-04-20T01:01:11.689Z,20.60
2018-04-20T01:03:39.184Z,20.60
2018-04-20T01:06:06.707Z,20.60
2018-04-20T01:08:34.152Z,20.60
2018-04-20T01:11:01.638Z,20.50
2018-04-20T01:13:29.062Z,20.50
2018-04-20T01:15:57.188Z,20.50
2018-04-20T01:18:24.624Z,20.40
2018-04-20T01:20:52.074Z,20.40
2018-04-20T01:23:19.550Z,20.30
2018-04-20T01:25:48.769Z,20.20
2018-04-20T01:28:16.168Z,20.20
2018-04-20T01:30:43.602Z,20.10
2018-04-20T01:33:11.799Z,19.90
2018-04-20T01:35:39.247Z,19.90
2018-04-20T01:38:06.758Z,19.90
2018-04-20T01:40:34.187Z,19.80
2018-04-20T01:43:01.640Z,19.80
2018-04-20T01:45:29.059Z,19.90
2018-04-20T01:47:57.257Z,20.40
2018-04-20T01:50:24.695Z,20.30
2018-04-20T01:52:52.898Z,20.00
2018-04-20T01:55:20.337Z,20.00
2018-04-20T01:57:48.157Z,20.00
2018-04-20T02:00:15.594Z,20.00
2018-04-20T02:02:43.043Z,20.00
2018-04-20T02:05:10.487Z,20.00
2018-04-20T02:07:37.923Z,20.00
2018-04-20T02:10:06.134Z,19.70
2018-04-20T02:12:33.563Z,19.70
2018-04-20T02:15:00.998Z,19.70
2018-04-20T02:17:28.559Z,19.70
2018-04-20T02:19:56.973Z,19.70
2018-04-20T02:22:24.472Z,19.60
2018-04-20T02:24:51.909Z,19.70
2018-04-20T02:27:19.360Z,19.80
2018-04-20T02:29:46.783Z,19.90
2018-04-20T02:32:14.995Z,20.00
2018-04-20T02:34:42.439Z,20.00
2018-04-20T02:37:09.884Z,20.10
2018-04-20T02:39:38.087Z,20.00
2018-04-20T02:42:05.540Z,20.00
2018-04-20T02:44:32.959Z,20.10
2018-04-20T02:47:00.428Z,20.10
2018-04-20T02:49:28.608Z,20.00
2018-04-20T02:51:56.049Z,20.00
2018-04-20T02:54:24.296Z,19.70
2018-04-20T02:56:51.727Z,19.70
2018-04-20T02:59:19.172Z,19.70
2018-04-20T03:01:46.595Z,19.50
2018-04-20T03:04:14.813Z,19.40
2018-04-20T03:06:42.232Z,19.40
2018-04-20T03:09:10.436Z,19.40
2018-04-20T03:11:37.867Z,19.30
2018-04-20T03:14:06.131Z,19.20
2018-04-20T03:16:33.608Z,19.20
2018-04-20T03:19:01.815Z,19.20
2018-04-20T03:21:29.292Z,19.10
2018-04-20T03:23:57.480Z,19.10
2018-04-20T03:26:25.015Z,19.10
2018-04-20T03:28:52.439Z,19.00
2018-04-20T03:31:19.867Z,19.00
2018-04-20T03:33:48.327Z,18.90
2018-04-20T03:36:15.772Z,18.90
2018-04-20T03:38:43.321Z,19.00
2018-04-20T03:41:10.751Z,19.20
2018-04-20T03:43:38.184Z,19.30
2018-04-20T03:46:05.623Z,19.40
2018-04-20T03:48:33.048Z,19.50
2018-04-20T03:51:00.484Z,19.50
2018-04-20T03:53:27.962Z,19.40
2018-04-20T03:55:55.384Z,19.20
2018-04-20T03:58:23.597Z,19.10
2018-04-20T04:00:51.797Z,19.00
2018-04-20T04:03:19.230Z,19.00
2018-04-20T04:05:46.687Z,19.20
2018-04-20T04:08:14.134Z,19.30
2018-04-20T04:10:41.572Z,19.30
2018-04-20T04:13:09.763Z,18.90
2018-04-20T04:15:37.213Z,18.90
2018-04-20T04:18:16.502Z,18.90
2018-04-20T04:20:44.874Z,19.10
2018-04-20T04:23:24.212Z,19.10
2018-04-20T04:26:03.574Z,19.20
2018-04-20T04:28:30.997Z,19.10
2018-04-20T04:30:58.535Z,19.10
2018-04-20T04:33:25.947Z,19.10
2018-04-20T04:35:54.148Z,19.20
2018-04-20T04:38:21.576Z,19.20
2018-04-20T04:40:49.007Z,19.20
2018-04-20T04:43:16.459Z,19.20
2018-04-20T04:45:43.878Z,19.20
2018-04-20T04:48:11.325Z,19.10
2018-04-20T04:50:39.516Z,18.80
2018-04-20T04:53:07.712Z,18.70
2018-04-20T04:55:35.186Z,18.60
2018-04-20T04:58:02.639Z,18.80
2018-04-20T05:00:30.083Z,18.90
2018-04-20T05:02:57.545Z,19.00
2018-04-20T05:05:24.979Z,19.00
2018-04-20T05:07:52.424Z,19.10
2018-04-20T05:10:19.923Z,19.20
2018-04-20T05:12:49.038Z,19.20
2018-04-20T05:15:16.574Z,19.20
2018-04-20T05:17:44.011Z,18.90
2018-04-20T05:20:11.464Z,19.00
2018-04-20T05:22:38.894Z,19.20
2018-04-20T05:25:07.099Z,19.30
2018-04-20T05:27:34.550Z,19.30
2018-04-20T05:30:02.071Z,19.30
2018-04-20T05:32:30.284Z,19.50
2018-04-20T05:34:57.711Z,19.50
2018-04-20T05:37:25.143Z,19.60
2018-04-20T05:39:52.637Z,19.60
2018-04-20T05:42:20.020Z,19.60
2018-04-20T05:44:48.393Z,19.70
2018-04-20T05:47:15.809Z,19.80
2018-04-20T05:49:43.240Z,19.90
2018-04-20T05:52:10.684Z,20.00
2018-04-20T05:54:38.124Z,20.10
2018-04-20T05:57:05.571Z,20.20
2018-04-20T05:59:33.774Z,20.50
2018-04-20T06:02:01.205Z,20.50
2018-04-20T06:04:28.630Z,20.60
2018-04-20T06:06:56.068Z,20.60
2018-04-20T06:09:23.512Z,20.80
2018-04-20T06:11:50.948Z,20.90
2018-04-20T06:14:18.401Z,21.10
2018-04-20T06:16:45.821Z,21.40
2018-04-20T06:19:13.271Z,21.70
2018-04-20T06:21:40.708Z,22.00
2018-04-20T06:24:08.152Z,22.30
2018-04-20T06:26:35.608Z,22.90
2018-04-20T06:29:03.812Z,23.70
2018-04-20T06:31:31.255Z,24.50
2018-04-20T06:33:58.697Z,25.20
2018-04-20T06:36:26.127Z,26.10
2018-04-20T06:38:53.619Z,27.40
2018-04-20T06:41:21.065Z,28.70
2018-04-20T06:43:48.742Z,29.80
2018-04-20T06:46:16.174Z,30.70
2018-04-20T06:48:43.608Z,31.70
2018-04-20T06:51:12.229Z,33.50
2018-04-20T06:53:39.786Z,33.50
2018-04-20T06:56:07.208Z,33.70
2018-04-20T06:58:35.401Z,32.80
2018-04-20T07:01:02.892Z,32.80
2018-04-20T07:03:30.352Z,32.30
2018-04-20T07:05:57.800Z,32.00
2018-04-20T07:08:25.245Z,31.70
2018-04-20T07:10:52.682Z,31.20
2018-04-20T07:13:20.863Z,30.50
2018-04-20T07:15:48.790Z,30.50
2018-04-20T07:18:16.215Z,30.20
2018-04-20T07:20:43.660Z,29.90
2018-04-20T07:23:11.111Z,29.70
2018-04-20T07:25:38.535Z,29.40
2018-04-20T07:28:06.763Z,29.40
2018-04-20T07:30:34.179Z,29.40
2018-04-20T07:33:01.641Z,29.50
2018-04-20T07:35:29.856Z,29.80
2018-04-20T07:37:57.300Z,29.80
2018-04-20T07:40:24.723Z,30.10
2018-04-20T07:42:52.949Z,29.70
2018-04-20T07:45:20.404Z,29.70
2018-04-20T07:47:48.784Z,29.90
2018-04-20T07:50:16.220Z,29.90
2018-04-20T07:52:43.700Z,29.90
2018-04-20T07:55:11.124Z,30.00
2018-04-20T07:57:38.561Z,30.00
2018-04-20T08:02:41.389Z,32.20
2018-04-20T08:05:08.820Z,32.20
2018-04-20T08:07:37.035Z,32.80
2018-04-20T08:10:04.454Z,32.80
2018-04-20T08:12:32.660Z,32.40
2018-04-20T08:15:00.851Z,32.40
2018-04-20T08:17:28.300Z,32.70
2018-04-20T08:19:55.737Z,33.50
2018-04-20T08:22:23.159Z,34.60
2018-04-20T08:24:50.603Z,35.20
2018-04-20T08:27:18.032Z,35.30
2018-04-20T08:29:45.479Z,36.00
2018-04-20T08:32:12.900Z,35.80
2018-04-20T08:34:41.560Z,36.70
2018-04-20T08:37:08.979Z,36.70
2018-04-20T08:39:36.415Z,36.40
2018-04-20T08:42:03.917Z,35.80
2018-04-20T08:44:31.287Z,35.50
2018-04-20T08:46:58.707Z,36.00
2018-04-20T08:49:26.153Z,36.70
2018-04-20T08:51:53.599Z,36.00
2018-04-20T08:54:21.801Z,37.60
2018-04-20T08:56:50.068Z,37.60
2018-04-20T08:59:17.512Z,38.90
2018-04-20T09:01:45.708Z,40.80
2018-04-20T09:04:13.184Z,40.80
2018-04-20T09:06:40.603Z,41.00
2018-04-20T09:09:08.048Z,41.60
2018-04-20T09:11:36.249Z,42.10
2018-04-20T09:14:03.681Z,42.10
2018-04-20T09:16:31.881Z,42.70
2018-04-20T09:18:59.337Z,42.70
2018-04-20T09:21:26.803Z,43.30
2018-04-20T09:23:54.268Z,43.40
2018-04-20T09:26:21.885Z,44.30
2018-04-20T09:28:50.076Z,45.90
2018-04-20T09:31:18.281Z,46.50
2018-04-20T09:33:46.503Z,46.50
2018-04-20T09:36:13.988Z,46.60
2018-04-20T09:38:41.431Z,45.90
2018-04-20T09:41:08.896Z,45.60
2018-04-20T09:43:37.089Z,45.80
2018-04-20T09:46:04.527Z,45.90
2018-04-20T09:48:32.739Z,46.10
2018-04-20T09:51:00.189Z,46.10
2018-04-20T09:53:27.612Z,45.30
2018-04-20T09:55:55.888Z,44.80
2018-04-20T09:58:24.088Z,44.70
2018-04-20T10:00:51.531Z,44.80
2018-04-20T10:03:19.898Z,45.20
2018-04-20T10:05:47.350Z,45.20
2018-04-20T10:08:15.495Z,45.70
2018-04-20T10:10:42.914Z,45.30
2018-04-20T10:13:10.356Z,45.00
2018-04-20T10:15:38.560Z,44.10
2018-04-20T10:18:05.985Z,44.00
2018-04-20T10:20:34.200Z,42.30
2018-04-20T10:23:01.640Z,42.30
2018-04-20T10:25:29.063Z,41.90
2018-04-20T10:27:57.277Z,42.40
2018-04-20T10:30:24.722Z,42.40
2018-04-20T10:32:52.312Z,43.60
2018-04-20T10:35:19.732Z,45.00
2018-04-20T10:37:47.172Z,46.00
2018-04-20T10:40:16.264Z,46.00
2018-04-20T10:42:44.082Z,45.90
2018-04-20T10:45:11.549Z,45.40
2018-04-20T10:47:38.972Z,45.40
2018-04-20T10:50:07.251Z,45.00
2018-04-20T10:52:35.135Z,44.90
2018-04-20T10:55:02.610Z,45.10
2018-04-20T10:57:30.047Z,44.80
2018-04-20T10:59:57.507Z,44.40
2018-04-20T11:02:24.989Z,43.80
2018-04-20T11:04:52.403Z,44.40
2018-04-20T11:07:19.841Z,44.20
2018-04-20T11:09:48.096Z,45.50
2018-04-20T11:12:15.513Z,45.50
2018-04-20T11:14:42.953Z,45.60
2018-04-20T11:17:10.397Z,45.50
2018-04-20T11:19:38.597Z,45.50
2018-04-20T11:22:06.024Z,45.40
2018-04-20T11:24:34.236Z,46.40
2018-04-20T11:27:01.726Z,46.40
2018-04-20T11:29:29.942Z,45.60
2018-04-20T11:31:58.143Z,46.40
2018-04-20T11:34:25.588Z,46.40
2018-04-20T11:36:53.040Z,45.60
2018-04-20T11:39:21.233Z,44.60
2018-04-20T11:41:49.477Z,44.50
2018-04-20T11:44:17.683Z,45.50
2018-04-20T11:47:02.011Z,45.50
2018-04-20T11:49:30.220Z,46.60
2018-04-20T11:51:57.651Z,46.70
2018-04-20T11:54:25.104Z,47.00
2018-04-20T11:56:53.296Z,45.20
2018-04-20T11:59:20.728Z,45.20
2018-04-20T12:01:49.861Z,45.00
2018-04-20T12:04:17.294Z,45.00
2018-04-20T12:06:46.759Z,43.80
2018-04-20T12:09:16.945Z,44.20
2018-04-20T12:11:44.359Z,44.70
2018-04-20T12:14:12.624Z,44.90
2018-04-20T12:16:40.063Z,44.90
2018-04-20T12:19:07.511Z,43.90
2018-04-20T12:21:34.945Z,43.80
2018-04-20T12:24:02.366Z,44.30
2018-04-20T12:26:30.664Z,44.60
2018-04-20T12:28:59.267Z,45.50
2018-04-20T12:31:26.709Z,45.50
2018-04-20T12:33:54.143Z,44.30
2018-04-20T12:36:22.356Z,45.30
2018-04-20T12:38:49.787Z,45.30
2018-04-20T12:41:18.036Z,46.40
2018-04-20T12:43:45.430Z,46.40
2018-04-20T12:46:12.865Z,44.80
2018-04-20T12:48:41.070Z,44.10
2018-04-20T12:51:08.508Z,44.10
2018-04-20T12:53:36.703Z,44.20
2018-04-20T12:56:04.136Z,44.20
2018-04-20T12:58:32.344Z,43.70
2018-04-20T13:00:59.830Z,43.80
2018-04-20T13:03:27.270Z,44.30
2018-04-20T13:05:54.703Z,44.70
2018-04-20T13:08:22.139Z,45.20
2018-04-20T13:10:51.892Z,45.30
2018-04-20T13:13:19.332Z,45.20
2018-04-20T13:15:46.755Z,45.30
2018-04-20T13:18:14.194Z,44.80
2018-04-20T13:20:41.640Z,45.00
2018-04-20T13:23:10.372Z,45.10
2018-04-20T13:25:38.634Z,45.10
2018-04-20T13:28:06.012Z,45.10
2018-04-20T13:30:33.440Z,45.10
2018-04-20T13:33:00.900Z,45.00
2018-04-20T13:35:28.856Z,43.90
2018-04-20T13:37:56.288Z,43.70
2018-04-20T13:40:23.730Z,43.60
2018-04-20T13:42:51.160Z,43.80
2018-04-20T13:45:18.598Z,44.00
2018-04-20T13:47:46.043Z,43.70
2018-04-20T13:50:13.488Z,43.70
2018-04-20T13:52:40.933Z,44.20
2018-04-20T13:55:08.351Z,43.80
2018-04-20T13:57:35.794Z,43.70
2018-04-20T14:00:03.991Z,42.60
2018-04-20T14:02:31.445Z,42.60
2018-04-20T14:04:59.636Z,42.80
2018-04-20T14:07:27.076Z,42.70
2018-04-20T14:09:55.280Z,42.80
2018-04-20T14:12:22.719Z,42.80
2018-04-20T14:14:50.225Z,42.50
2018-04-20T14:17:17.694Z,41.20
2018-04-20T14:19:45.148Z,41.60
2018-04-20T14:22:12.567Z,41.80
2018-04-20T14:24:40.008Z,42.30
2018-04-20T14:27:07.428Z,42.80
2018-04-20T14:29:34.863Z,43.00
2018-04-20T14:32:02.295Z,43.10
2018-04-20T14:34:29.769Z,42.60
2018-04-20T14:36:57.203Z,42.40
2018-04-20T14:39:24.644Z,42.40
2018-04-20T14:41:52.080Z,42.40
2018-04-20T14:44:20.283Z,42.90
2018-04-20T14:46:47.709Z,42.90
2018-04-20T14:49:15.153Z,43.00
2018-04-20T14:51:42.591Z,43.10
2018-04-20T14:54:10.102Z,42.70
2018-04-20T14:56:38.332Z,41.40
2018-04-20T14:59:05.752Z,41.30
2018-04-20T15:01:33.179Z,41.20
2018-04-20T15:04:01.384Z,42.00
2018-04-20T15:06:28.983Z,42.10
2018-04-20T15:08:56.654Z,41.90
2018-04-20T15:11:24.089Z,41.40
2018-04-20T15:14:01.627Z,41.00
2018-04-20T15:16:32.089Z,41.10
2018-04-20T15:19:00.312Z,40.60
2018-04-20T15:21:27.729Z,40.60
2018-04-20T15:23:56.616Z,40.40
2018-04-20T15:26:24.074Z,40.30
2018-04-20T15:28:51.495Z,39.90
2018-04-20T15:31:19.703Z,38.60
2018-04-20T15:33:47.128Z,38.50
2018-04-20T15:36:15.381Z,36.80
2018-04-20T15:38:42.759Z,36.70
2018-04-20T15:41:10.195Z,36.80
2018-04-20T15:43:37.633Z,36.70
2018-04-20T15:46:05.060Z,36.80
2018-04-20T15:48:32.516Z,35.90
2018-04-20T15:51:00.001Z,35.40
2018-04-20T15:53:27.456Z,34.90
2018-04-20T15:55:54.912Z,35.40
2018-04-20T15:58:23.202Z,35.60
2018-04-20T16:00:50.598Z,35.70
2018-04-20T16:03:18.867Z,35.60
2018-04-20T16:05:46.303Z,35.60
2018-04-20T16:08:13.738Z,35.60
2018-04-20T16:10:41.199Z,35.70
2018-04-20T16:13:08.668Z,35.50
2018-04-20T16:15:36.105Z,35.00
2018-04-20T16:18:03.548Z,34.90
2018-04-20T16:20:30.979Z,35.00
2018-04-20T16:22:59.182Z,34.50
2018-04-20T16:25:26.613Z,34.50
2018-04-20T16:27:54.815Z,34.90
2018-04-20T16:30:22.258Z,34.90
2018-04-20T16:32:50.359Z,34.60
2018-04-20T16:35:17.780Z,34.60
2018-04-20T16:37:45.983Z,34.50
2018-04-20T16:40:13.411Z,34.50
2018-04-20T16:42:41.633Z,34.10
2018-04-20T16:45:09.076Z,34.10
2018-04-20T16:47:36.519Z,34.10
2018-04-20T16:50:03.942Z,33.80
2018-04-20T16:52:31.382Z,33.80
2018-04-20T16:54:58.804Z,33.70
2018-04-20T16:57:26.243Z,33.70
2018-04-20T16:59:53.683Z,33.50
2018-04-20T17:02:21.882Z,33.00
2018-04-20T17:04:50.105Z,33.00
2018-04-20T17:07:17.574Z,33.00
2018-04-20T17:09:44.964Z,33.00
2018-04-20T17:12:13.155Z,32.80
2018-04-20T17:14:40.587Z,33.00
2018-04-20T17:17:08.886Z,33.00
2018-04-20T17:19:37.084Z,32.80
2018-04-20T17:22:04.508Z,32.80
2018-04-20T17:24:31.987Z,32.70
2018-04-20T17:26:59.444Z,32.60
2018-04-20T17:29:26.902Z,32.80
2018-04-20T17:31:54.311Z,33.00
2018-04-20T17:34:21.738Z,33.10
2018-04-20T17:36:50.100Z,33.20
2018-04-20T17:39:17.535Z,33.00
2018-04-20T17:41:44.990Z,33.00
2018-04-20T17:44:13.184Z,33.00
2018-04-20T17:46:40.616Z,33.00
2018-04-20T17:49:08.071Z,32.60
2018-04-20T17:51:35.511Z,32.70
2018-04-20T17:54:03.711Z,32.70
2018-04-20T17:56:31.152Z,32.70
2018-04-20T17:58:59.342Z,32.70
2018-04-20T18:01:26.791Z,32.60
2018-04-20T18:03:54.978Z,32.70
2018-04-20T18:06:22.423Z,32.60
2018-04-20T18:08:50.957Z,32.50
2018-04-20T18:11:18.392Z,32.50
2018-04-20T18:13:45.838Z,32.40
2018-04-20T18:16:13.271Z,32.40
2018-04-20T18:18:41.468Z,32.30
2018-04-20T18:21:08.931Z,32.30
2018-04-20T18:23:36.353Z,32.30
2018-04-20T18:26:03.784Z,32.20
2018-04-20T18:28:31.284Z,32.00
2018-04-20T18:30:59.479Z,31.80
2018-04-20T18:33:26.906Z,31.80
2018-04-20T18:35:55.112Z,31.70
2018-04-20T18:38:22.539Z,31.70
2018-04-20T18:40:50.273Z,31.70
2018-04-20T18:43:17.716Z,31.50
2018-04-20T18:45:45.164Z,31.50
2018-04-20T18:48:12.597Z,31.40
2018-04-20T18:50:40.791Z,31.20
2018-04-20T18:53:08.236Z,31.20
2018-04-20T18:55:35.674Z,31.10
2018-04-20T18:58:03.886Z,30.90
2018-04-20T19:00:32.324Z,30.90
2018-04-20T19:03:00.518Z,30.70
2018-04-20T19:05:27.945Z,30.60
2018-04-20T19:07:55.383Z,30.60
2018-04-20T19:10:22.820Z,30.50
2018-04-20T19:12:50.426Z,30.40
2018-04-20T19:15:18.643Z,30.20
2018-04-20T19:17:46.103Z,30.20
2018-04-20T19:20:13.531Z,30.10
2018-04-20T19:22:40.982Z,30.10
2018-04-20T19:25:08.401Z,30.10
2018-04-20T19:27:35.844Z,30.00
2018-04-20T19:30:03.286Z,29.80
2018-04-20T19:32:30.716Z,29.60
2018-04-20T19:34:58.903Z,29.30
2018-04-20T19:37:26.348Z,29.30
2018-04-20T19:39:54.557Z,29.00
2018-04-20T19:42:22.000Z,29.00
2018-04-20T19:44:50.440Z,29.00
2018-04-20T19:47:17.881Z,28.90
2018-04-20T19:49:45.338Z,28.70
2018-04-20T19:52:12.769Z,28.60
2018-04-20T19:54:40.213Z,28.70
2018-04-20T19:57:07.643Z,28.60
2018-04-20T19:59:35.895Z,28.60
2018-04-20T20:02:03.285Z,28.60
2018-04-20T20:04:30.818Z,28.40
2018-04-20T20:06:58.344Z,28.40
2018-04-20T20:09:25.767Z,28.40
2018-04-20T20:11:53.258Z,28.60
2018-04-20T20:14:21.407Z,28.80
2018-04-20T20:16:48.850Z,28.80
2018-04-20T20:19:16.280Z,28.80
2018-04-20T20:21:43.716Z,28.80
2018-04-20T20:24:11.149Z,28.70
2018-04-20T20:26:38.567Z,28.60
2018-04-20T20:29:06.773Z,28.50
2018-04-20T20:31:34.218Z,28.40
2018-04-20T20:34:01.639Z,28.50
2018-04-20T20:36:29.125Z,28.30
2018-04-20T20:38:57.320Z,28.20
2018-04-20T20:41:24.750Z,28.20
2018-04-20T20:43:52.948Z,28.00
2018-04-20T20:46:20.383Z,28.00
2018-04-20T20:48:48.578Z,27.90
2018-04-20T20:51:16.011Z,27.90
2018-04-20T20:53:43.449Z,27.80
2018-04-20T20:56:10.950Z,27.70
2018-04-20T20:58:38.388Z,27.60
2018-04-20T21:01:06.596Z,27.60
2018-04-20T21:03:34.026Z,27.60
2018-04-20T21:06:02.238Z,27.30
2018-04-20T21:08:29.664Z,27.30
2018-04-20T21:10:57.107Z,27.30
2018-04-20T21:13:25.305Z,27.30
2018-04-20T21:15:52.751Z,27.20
2018-04-20T21:18:20.931Z,27.10
2018-04-20T21:20:48.376Z,27.10
2018-04-20T21:23:16.571Z,27.00
2018-04-20T21:25:44.011Z,27.00
2018-04-20T21:28:12.215Z,26.90
2018-04-20T21:30:39.639Z,26.90
2018-04-20T21:33:07.844Z,26.70
2018-04-20T21:35:35.278Z,26.70
2018-04-20T21:38:02.719Z,26.70
2018-04-20T21:40:30.971Z,26.60
2018-04-20T21:42:58.412Z,26.60
2018-04-20T21:45:25.854Z,26.50
2018-04-20T21:47:53.289Z,26.50
2018-04-20T21:50:20.724Z,26.50
2018-04-20T21:52:48.936Z,26.30
2018-04-20T21:55:16.352Z,26.30
2018-04-20T21:57:43.786Z,26.30
2018-04-20T22:00:11.763Z,26.20
2018-04-20T22:02:39.200Z,26.10
2018-04-20T22:05:07.653Z,26.10
2018-04-20T22:07:35.091Z,26.10
2018-04-20T22:10:03.293Z,26.00
2018-04-20T22:12:30.719Z,26.00
2018-04-20T22:14:58.923Z,25.90
2018-04-20T22:17:26.367Z,25.80
2018-04-20T22:19:53.792Z,25.80
2018-04-20T22:22:21.244Z,25.70
2018-04-20T22:24:48.763Z,25.60
2018-04-20T22:27:16.171Z,25.70
2018-04-20T22:29:44.383Z,25.70
2018-04-20T22:32:11.884Z,25.60
2018-04-20T22:34:39.328Z,25.60
2018-04-20T22:37:06.772Z,25.70
2018-04-20T22:39:34.225Z,25.50
2018-04-20T22:42:01.684Z,25.50
2018-04-20T22:44:29.161Z,25.40
2018-04-20T22:46:56.600Z,25.50
2018-04-20T22:49:24.043Z,25.30
2018-04-20T22:51:51.515Z,25.20
2018-04-20T22:54:18.954Z,25.10
2018-04-20T22:56:46.395Z,25.10
2018-04-20T22:59:14.607Z,24.90
2018-04-20T23:01:42.067Z,24.90
2018-04-20T23:04:09.521Z,24.90
2018-04-20T23:06:36.959Z,25.00
2018-04-20T23:09:04.395Z,24.80
2018-04-20T23:11:32.608Z,24.70
2018-04-20T23:14:00.073Z,24.70
2018-04-20T23:16:27.510Z,24.70
2018-04-20T23:18:54.981Z,24.70
2018-04-20T23:21:22.423Z,24.50
2018-04-20T23:23:49.851Z,24.50
2018-04-20T23:26:17.280Z,24.40
2018-04-20T23:28:44.716Z,24.40
2018-04-20T23:31:12.175Z,24.30
2018-04-20T23:33:39.616Z,24.20
2018-04-20T23:36:07.104Z,24.30
2018-04-20T23:38:34.494Z,24.20
2018-04-20T23:41:02.704Z,24.00
2018-04-20T23:43:30.192Z,23.90
2018-04-20T23:45:57.641Z,23.80
2018-04-20T23:48:25.090Z,23.70
2018-04-20T23:50:52.537Z,23.70
2018-04-20T23:53:19.964Z,23.60
2018-04-20T23:55:48.169Z,23.60
2018-04-20T23:58:15.612Z,23.60
